createdAt,value
2018-05-03T00:00:59.696Z,80.35
2018-05-03T00:03:27.662Z,80.90
2018-05-03T00:05:55.528Z,81.28
2018-05-03T00:08:23.398Z,84.65
2018-05-03T00:10:51.361Z,80.57
2018-05-03T00:13:19.227Z,83.68
2018-05-03T00:15:47.094Z,81.90
2018-05-03T00:18:15.038Z,81.95
2018-05-03T00:20:43.031Z,76.97
2018-05-03T00:23:11.106Z,79.15
2018-05-03T00:25:38.969Z,81.95
2018-05-03T00:28:07.552Z,77.55
2018-05-03T00:30:35.417Z,79.55
2018-05-03T00:33:04.173Z,79.07
2018-05-03T00:35:32.071Z,78.28
2018-05-03T00:37:59.937Z,76.75
2018-05-03T00:40:27.804Z,78.10
2018-05-03T00:42:55.670Z,80.10
2018-05-03T00:45:23.535Z,82.20
2018-05-03T00:47:51.503Z,76.93
2018-05-03T00:50:19.472Z,79.95
2018-05-03T00:52:47.348Z,76.18
2018-05-03T00:55:15.207Z,80.05
2018-05-03T00:57:43.070Z,78.28
2018-05-03T01:00:11.043Z,78.03
2018-05-03T01:02:38.907Z,78.10
2018-05-03T01:05:07.590Z,76.87
2018-05-03T01:07:35.463Z,79.28
2018-05-03T01:10:03.322Z,75.07
2018-05-03T01:12:32.007Z,76.05
2018-05-03T01:14:59.874Z,79.62
2018-05-03T01:17:27.744Z,78.05
2018-05-03T01:19:55.606Z,79.55
2018-05-03T01:22:23.475Z,77.37
2018-05-03T01:24:51.443Z,79.12
2018-05-03T01:27:19.408Z,76.62
2018-05-03T01:29:47.280Z,76.35
2018-05-03T01:32:15.143Z,77.03
2018-05-03T01:34:43.112Z,76.43
2018-05-03T01:37:10.978Z,75.87
2018-05-03T01:39:38.910Z,72.95
2018-05-03T01:42:06.827Z,74.60
2018-05-03T01:44:34.780Z,74.55
2018-05-03T01:47:02.748Z,73.62
2018-05-03T01:49:30.615Z,75.95
2018-05-03T01:51:58.479Z,76.57
2018-05-03T01:54:26.351Z,74.87
2018-05-03T01:56:54.213Z,74.60
2018-05-03T01:59:22.077Z,77.93
2018-05-03T02:01:49.947Z,76.93
2018-05-03T02:04:17.814Z,76.75
2018-05-03T02:06:45.677Z,75.22
2018-05-03T02:09:14.363Z,77.65
2018-05-03T02:11:42.230Z,76.20
2018-05-03T02:14:10.131Z,77.20
2018-05-03T02:16:38.780Z,74.25
2018-05-03T02:19:06.649Z,74.68
2018-05-03T02:21:34.514Z,75.70
2018-05-03T02:24:02.355Z,76.90
2018-05-03T02:26:30.201Z,78.10
2018-05-03T02:28:58.110Z,75.50
2018-05-03T02:31:26.079Z,78.75
2018-05-03T02:33:53.946Z,77.90
2018-05-03T02:36:21.914Z,79.62
2018-05-03T02:38:49.884Z,76.22
2018-05-03T02:41:17.750Z,80.62
2018-05-03T02:43:45.728Z,77.40
2018-05-03T02:46:13.686Z,79.50
2018-05-03T02:48:41.554Z,76.55
2018-05-03T02:51:09.417Z,78.43
2018-05-03T02:53:37.287Z,76.87
2018-05-03T02:56:06.793Z,77.78
2018-05-03T02:58:46.535Z,77.40
2018-05-03T03:01:32.119Z,79.18
2018-05-03T03:04:29.889Z,75.97
2018-05-03T03:07:15.462Z,78.93
2018-05-03T03:10:09.851Z,76.37
2018-05-03T03:16:07.638Z,81.65
2018-05-03T03:18:53.116Z,79.90
2018-05-03T03:21:38.595Z,80.43
2018-05-03T03:24:33.905Z,76.85
2018-05-03T03:27:19.592Z,78.62
2018-05-03T03:33:26.387Z,79.25
2018-05-03T03:36:06.135Z,78.85
2018-05-03T03:38:45.774Z,81.07
2018-05-03T03:41:25.517Z,83.47
2018-05-03T03:44:05.262Z,78.70
2018-05-03T03:46:33.140Z,76.37
2018-05-03T03:49:00.994Z,77.00
2018-05-03T03:51:28.860Z,76.65
2018-05-03T03:53:56.831Z,75.78
2018-05-03T03:56:24.695Z,79.87
2018-05-03T03:58:52.562Z,77.78
2018-05-03T04:01:20.426Z,79.55
2018-05-03T04:03:48.397Z,77.43
2018-05-03T04:06:16.268Z,78.57
2018-05-03T04:08:44.133Z,77.40
2018-05-03T04:11:12.100Z,79.37
2018-05-03T04:13:39.961Z,78.65
2018-05-03T04:16:07.795Z,77.37
2018-05-03T04:18:47.695Z,77.95
2018-05-03T04:21:27.421Z,81.60
2018-05-03T04:24:09.012Z,75.50
2018-05-03T04:26:36.978Z,77.78
2018-05-03T04:29:04.908Z,77.60
2018-05-03T04:31:32.814Z,77.97
2018-05-03T04:34:00.884Z,77.43
2018-05-03T04:36:28.753Z,76.80
2018-05-03T04:38:56.616Z,77.62
2018-05-03T04:41:24.696Z,96.80
2018-05-03T04:43:52.552Z,76.57
2018-05-03T04:46:20.419Z,78.70
2018-05-03T04:48:48.287Z,77.97
2018-05-03T04:51:16.252Z,81.05
2018-05-03T04:53:44.178Z,76.82
2018-05-03T04:56:12.906Z,80.12
2018-05-03T04:58:53.144Z,78.93
2018-05-03T05:01:46.777Z,80.00
2018-05-03T05:04:15.417Z,79.97
2018-05-03T05:06:43.283Z,79.30
2018-05-03T05:09:11.149Z,80.20
2018-05-03T05:11:39.119Z,79.95
2018-05-03T05:14:07.089Z,89.13
2018-05-03T05:16:35.218Z,84.32
2018-05-03T05:19:02.998Z,84.85
2018-05-03T05:21:30.889Z,86.30
2018-05-03T05:23:58.757Z,85.90
2018-05-03T05:26:26.637Z,87.53
2018-05-03T05:28:54.399Z,94.30
2018-05-03T05:31:22.149Z,89.85
2018-05-03T05:33:50.018Z,83.25
2018-05-03T05:36:18.128Z,87.20
2018-05-03T05:38:46.866Z,85.38
2018-05-03T05:41:14.636Z,84.57
2018-05-03T05:43:42.504Z,90.68
2018-05-03T05:46:10.368Z,81.63
2018-05-03T05:48:38.235Z,89.00
2018-05-03T05:51:06.300Z,83.28
2018-05-03T05:53:34.172Z,86.10
2018-05-03T05:56:02.144Z,82.05
2018-05-03T05:58:30.109Z,80.93
2018-05-03T06:00:57.986Z,80.97
2018-05-03T06:03:25.949Z,82.12
2018-05-03T06:05:53.816Z,82.80
2018-05-03T06:08:21.676Z,82.62
2018-05-03T06:10:49.547Z,81.70
2018-05-03T06:13:17.416Z,82.47
2018-05-03T06:15:45.378Z,83.43
2018-05-03T06:18:13.213Z,82.57
2018-05-03T06:20:41.113Z,81.93
2018-05-03T06:23:09.077Z,83.28
2018-05-03T06:25:36.944Z,82.80
2018-05-03T06:28:04.914Z,82.80
2018-05-03T06:30:32.905Z,88.35
2018-05-03T06:33:00.956Z,85.20
2018-05-03T06:35:28.823Z,85.38
2018-05-03T06:37:56.900Z,82.82
2018-05-03T06:40:24.754Z,84.97
2018-05-03T06:42:52.814Z,82.62
2018-05-03T06:45:20.793Z,84.97
2018-05-03T06:47:48.663Z,82.82
2018-05-03T06:50:16.731Z,87.03
2018-05-03T06:52:44.701Z,87.72
2018-05-03T06:55:12.671Z,88.22
2018-05-03T06:57:40.537Z,86.55
2018-05-03T07:00:08.509Z,90.35
2018-05-03T07:02:36.477Z,93.87
2018-05-03T07:05:04.752Z,93.55
2018-05-03T07:07:32.730Z,89.85
2018-05-03T07:10:00.737Z,85.28
2018-05-03T07:12:28.669Z,87.90
2018-05-03T07:14:56.526Z,84.40
2018-05-03T07:17:24.388Z,85.28
2018-05-03T07:19:53.032Z,83.90
2018-05-03T07:22:21.051Z,85.62
2018-05-03T07:24:50.543Z,83.15
2018-05-03T07:27:18.523Z,83.75
2018-05-03T07:29:46.385Z,81.65
2018-05-03T07:32:14.559Z,85.15
2018-05-03T07:34:42.423Z,86.95
2018-05-03T07:37:10.494Z,88.28
2018-05-03T07:39:39.444Z,91.47
2018-05-03T07:42:07.463Z,98.45
2018-05-03T07:44:35.323Z,87.95
2018-05-03T07:47:03.184Z,87.60
2018-05-03T07:49:31.049Z,85.22
2018-05-03T07:51:58.917Z,83.60
2018-05-03T07:54:26.783Z,83.15
2018-05-03T07:56:54.753Z,82.88
2018-05-03T07:59:22.624Z,81.18
2018-05-03T08:01:51.424Z,80.68
2018-05-03T08:04:19.473Z,80.78
2018-05-03T08:06:47.342Z,79.35
2018-05-03T08:09:15.308Z,80.65
2018-05-03T08:11:43.278Z,81.12
2018-05-03T08:14:11.348Z,82.97
2018-05-03T08:16:39.424Z,80.12
2018-05-03T08:19:07.390Z,84.07
2018-05-03T08:21:35.355Z,85.35
2018-05-03T08:24:03.405Z,89.85
2018-05-03T08:26:31.293Z,86.80
2018-05-03T08:28:59.158Z,83.53
2018-05-03T08:31:27.029Z,86.70
2018-05-03T08:33:54.919Z,88.10
2018-05-03T08:36:23.535Z,91.05
2018-05-03T08:38:52.262Z,85.55
2018-05-03T08:41:20.135Z,91.80
2018-05-03T08:43:48.098Z,91.32
2018-05-03T08:46:16.785Z,90.00
2018-05-03T08:48:44.650Z,91.93
2018-05-03T08:51:12.480Z,87.78
2018-05-03T08:53:40.594Z,89.85
2018-05-03T08:56:09.271Z,88.90
2018-05-03T08:58:37.200Z,91.72
2018-05-03T09:01:05.211Z,88.70
2018-05-03T09:03:33.030Z,91.05
2018-05-03T09:06:00.939Z,88.10
2018-05-03T09:08:28.908Z,88.47
2018-05-03T09:10:56.777Z,86.75
2018-05-03T09:13:24.640Z,86.15
2018-05-03T09:15:52.571Z,85.97
2018-05-03T09:18:20.346Z,87.30
2018-05-03T09:20:48.240Z,85.10
2018-05-03T09:23:16.207Z,84.25
2018-05-03T09:25:44.384Z,86.43
2018-05-03T09:28:12.351Z,86.43
2018-05-03T09:30:40.328Z,89.72
2018-05-03T09:33:08.391Z,90.43
2018-05-03T09:35:36.259Z,91.30
2018-05-03T09:38:04.119Z,91.97
2018-05-03T09:40:32.092Z,90.93
2018-05-03T09:43:00.018Z,92.72
2018-05-03T09:45:28.028Z,94.60
2018-05-03T09:47:55.994Z,90.45
2018-05-03T09:50:23.861Z,92.07
2018-05-03T09:52:51.682Z,88.82
2018-05-03T09:55:19.697Z,86.93
2018-05-03T09:57:47.561Z,87.75
2018-05-03T10:00:15.429Z,88.22
2018-05-03T10:02:43.397Z,86.57
2018-05-03T10:05:11.222Z,90.00
2018-05-03T10:07:39.130Z,89.53
2018-05-03T10:10:06.994Z,86.45
2018-05-03T10:12:34.861Z,88.95
2018-05-03T10:15:02.934Z,89.70
2018-05-03T10:17:30.901Z,88.32
2018-05-03T10:19:58.873Z,87.72
2018-05-03T10:22:26.735Z,85.70
2018-05-03T10:24:54.600Z,82.25
2018-05-03T10:27:22.466Z,82.37
2018-05-03T10:29:50.343Z,82.12
2018-05-03T10:32:18.300Z,83.47
2018-05-03T10:34:46.268Z,79.15
2018-05-03T10:37:14.140Z,83.00
2018-05-03T10:39:42.001Z,79.10
2018-05-03T10:42:09.942Z,82.88
2018-05-03T10:44:37.837Z,84.13
2018-05-03T10:47:05.811Z,82.72
2018-05-03T10:49:33.673Z,83.47
2018-05-03T10:52:01.539Z,81.43
2018-05-03T10:54:29.408Z,82.97
2018-05-03T10:56:57.280Z,80.72
2018-05-03T10:59:25.137Z,81.82
2018-05-03T11:01:53.103Z,79.62
2018-05-03T11:04:21.032Z,77.78
2018-05-03T11:06:48.927Z,76.05
2018-05-03T11:09:16.803Z,75.82
2018-05-03T11:11:44.628Z,78.50
2018-05-03T11:14:12.652Z,74.87
2018-05-03T11:16:40.679Z,78.10
2018-05-03T11:19:08.539Z,73.22
2018-05-03T11:21:36.444Z,75.20
2018-05-03T11:24:04.237Z,73.15
2018-05-03T11:26:32.890Z,76.95
2018-05-03T11:29:00.861Z,73.28
2018-05-03T11:31:28.814Z,76.60
2018-05-03T11:33:56.695Z,74.78
2018-05-03T11:36:24.635Z,75.57
2018-05-03T11:38:52.535Z,75.78
2018-05-03T11:41:20.395Z,74.82
2018-05-03T11:43:48.272Z,74.30
2018-05-03T11:46:16.093Z,75.20
2018-05-03T11:48:44.054Z,76.70
2018-05-03T11:51:12.080Z,73.00
2018-05-03T11:53:40.851Z,72.53
2018-05-03T11:56:08.717Z,74.93
2018-05-03T11:58:36.604Z,72.97
2018-05-03T12:01:05.174Z,70.87
2018-05-03T12:03:33.245Z,74.10
2018-05-03T12:06:01.233Z,71.62
2018-05-03T12:08:29.890Z,77.47
2018-05-03T12:10:57.861Z,71.15
2018-05-03T12:13:25.827Z,76.93
2018-05-03T12:15:53.693Z,74.20
2018-05-03T12:18:21.665Z,74.65
2018-05-03T12:20:49.528Z,72.55
2018-05-03T12:23:17.398Z,73.40
2018-05-03T12:25:45.262Z,71.62
2018-05-03T12:28:13.082Z,74.57
2018-05-03T12:30:40.993Z,70.85
2018-05-03T12:33:08.860Z,72.22
2018-05-03T12:35:36.726Z,71.57
2018-05-03T12:38:04.590Z,73.03
2018-05-03T12:40:32.459Z,75.57
2018-05-03T12:43:00.434Z,71.03
2018-05-03T12:45:28.306Z,75.60
2018-05-03T12:47:56.272Z,72.85
2018-05-03T12:50:24.230Z,74.22
2018-05-03T12:52:52.096Z,71.80
2018-05-03T12:55:19.965Z,73.65
2018-05-03T12:57:47.836Z,71.87
2018-05-03T13:00:15.796Z,72.85
2018-05-03T13:02:43.619Z,73.82
2018-05-03T13:05:11.516Z,71.40
2018-05-03T13:07:39.504Z,72.22
2018-05-03T13:10:07.473Z,72.28
2018-05-03T13:12:35.349Z,72.03
2018-05-03T13:15:04.016Z,71.90
2018-05-03T13:17:31.894Z,72.32
2018-05-03T13:19:59.855Z,73.40
2018-05-03T13:22:27.922Z,72.05
2018-05-03T13:24:55.764Z,72.85
2018-05-03T13:27:23.653Z,73.20
2018-05-03T13:29:51.552Z,72.50
2018-05-03T13:32:20.310Z,73.97
2018-05-03T13:34:48.253Z,71.75
2018-05-03T13:37:16.142Z,71.57
2018-05-03T13:39:44.042Z,73.70
2018-05-03T13:42:12.694Z,70.62
2018-05-03T13:44:40.667Z,72.45
2018-05-03T13:47:08.633Z,73.72
2018-05-03T13:49:36.516Z,72.35
2018-05-03T13:52:04.446Z,73.07
2018-05-03T13:54:32.332Z,74.60
2018-05-03T13:57:00.219Z,71.45
2018-05-03T13:59:28.270Z,74.32
2018-05-03T14:01:56.340Z,72.43
2018-05-03T14:04:24.516Z,74.35
2018-05-03T14:06:52.420Z,71.35
2018-05-03T14:09:20.332Z,74.65
2018-05-03T14:11:48.317Z,71.30
2018-05-03T14:14:16.250Z,74.25
2018-05-03T14:16:44.255Z,71.43
2018-05-03T14:19:12.277Z,72.43
2018-05-03T14:21:40.395Z,73.62
2018-05-03T14:24:08.363Z,69.87
2018-05-03T14:26:36.235Z,73.18
2018-05-03T14:29:04.208Z,69.45
2018-05-03T14:31:32.049Z,75.40
2018-05-03T14:33:59.882Z,69.10
2018-05-03T14:36:27.814Z,75.15
2018-05-03T14:38:55.706Z,71.30
2018-05-03T14:41:24.396Z,71.82
2018-05-03T14:43:52.216Z,72.62
2018-05-03T14:46:20.102Z,73.65
2018-05-03T14:48:48.072Z,73.68
2018-05-03T14:51:16.018Z,71.97
2018-05-03T14:53:43.883Z,73.18
2018-05-03T14:56:11.913Z,69.95
2018-05-03T14:58:40.055Z,72.90
2018-05-03T15:01:08.852Z,71.40
2018-05-03T15:03:37.704Z,72.53
2018-05-03T15:06:05.571Z,72.60
2018-05-03T15:08:33.345Z,71.70
2018-05-03T15:11:01.202Z,72.57
2018-05-03T15:13:29.168Z,73.50
2018-05-03T15:15:57.116Z,72.32
2018-05-03T15:18:25.076Z,72.07
2018-05-03T15:20:53.074Z,71.53
2018-05-03T15:23:20.922Z,75.65
2018-05-03T15:25:48.811Z,71.45
2018-05-03T15:28:16.881Z,73.75
2018-05-03T15:30:44.741Z,73.70
2018-05-03T15:33:12.609Z,74.97
2018-05-03T15:35:40.577Z,72.30
2018-05-03T15:38:08.454Z,72.68
2018-05-03T15:40:36.451Z,72.35
2018-05-03T15:43:05.096Z,73.55
2018-05-03T15:45:32.975Z,74.25
2018-05-03T15:48:01.650Z,71.03
2018-05-03T15:50:29.518Z,73.78
2018-05-03T15:52:57.482Z,72.90
2018-05-03T15:55:25.457Z,74.00
2018-05-03T15:57:53.319Z,70.87
2018-05-03T16:00:21.290Z,74.87
2018-05-03T16:02:49.470Z,71.03
2018-05-03T16:05:17.530Z,74.05
2018-05-03T16:07:45.399Z,73.70
2018-05-03T16:10:13.472Z,70.03
2018-05-03T16:12:41.436Z,72.45
2018-05-03T16:15:09.306Z,71.35
2018-05-03T16:17:38.711Z,71.93
2018-05-03T16:20:06.676Z,69.85
2018-05-03T16:22:34.537Z,72.00
2018-05-03T16:25:02.407Z,71.00
2018-05-03T16:27:30.269Z,72.22
2018-05-03T16:29:58.313Z,72.07
2018-05-03T16:32:26.212Z,72.10
2018-05-03T16:34:54.038Z,69.97
2018-05-03T16:37:21.953Z,72.28
2018-05-03T16:39:49.862Z,70.32
2018-05-03T16:42:17.773Z,70.43
2018-05-03T16:44:45.747Z,70.62
2018-05-03T16:47:13.712Z,71.25
2018-05-03T16:49:41.679Z,71.22
2018-05-03T16:52:09.551Z,72.72
2018-05-03T16:54:37.471Z,71.22
2018-05-03T16:57:05.382Z,72.35
2018-05-03T16:59:33.247Z,72.70
2018-05-03T17:02:01.216Z,71.45
2018-05-03T17:04:29.159Z,73.18
2018-05-03T17:06:57.156Z,71.47
2018-05-03T17:09:25.017Z,74.37
2018-05-03T17:11:53.071Z,71.65
2018-05-03T17:14:20.957Z,72.55
2018-05-03T17:16:49.038Z,70.53
2018-05-03T17:19:18.439Z,72.07
2018-05-03T17:21:46.909Z,71.55
2018-05-03T17:24:14.881Z,72.03
2018-05-03T17:26:42.846Z,73.65
2018-05-03T17:29:10.732Z,71.40
2018-05-03T17:31:38.790Z,73.55
2018-05-03T17:34:06.758Z,72.60
2018-05-03T17:36:34.644Z,75.22
2018-05-03T17:39:03.677Z,70.80
2018-05-03T17:41:31.696Z,73.62
2018-05-03T17:43:59.548Z,71.18
2018-05-03T17:46:27.412Z,73.00
2018-05-03T17:48:55.280Z,71.35
2018-05-03T17:51:23.159Z,74.32
2018-05-03T17:53:51.338Z,72.32
2018-05-03T17:56:19.194Z,73.60
2018-05-03T17:58:47.804Z,71.28
2018-05-03T18:01:15.702Z,70.90
2018-05-03T18:03:43.567Z,72.28
2018-05-03T18:06:11.437Z,71.22
2018-05-03T18:08:39.404Z,72.40
2018-05-03T18:11:07.270Z,72.47
2018-05-03T18:13:35.325Z,72.65
2018-05-03T18:16:03.215Z,80.95
2018-05-03T18:18:31.031Z,75.10
2018-05-03T18:20:58.938Z,72.95
2018-05-03T18:23:26.898Z,74.35
2018-05-03T18:25:54.893Z,71.32
2018-05-03T18:28:22.741Z,72.68
2018-05-03T18:30:50.609Z,71.90
2018-05-03T18:33:18.546Z,72.03
2018-05-03T18:35:46.413Z,78.22
2018-05-03T18:38:14.312Z,74.47
2018-05-03T18:40:42.178Z,71.05
2018-05-03T18:43:10.037Z,72.87
2018-05-03T18:45:37.906Z,70.47
2018-05-03T18:48:05.738Z,71.28
2018-05-03T18:50:33.639Z,72.03
2018-05-03T18:53:01.478Z,76.22
2018-05-03T18:55:29.276Z,72.18
2018-05-03T18:57:57.141Z,71.57
2018-05-03T19:00:25.207Z,72.78
2018-05-03T19:02:53.069Z,69.32
2018-05-03T19:05:20.937Z,71.28
2018-05-03T19:07:48.802Z,72.32
2018-05-03T19:10:16.679Z,72.22
2018-05-03T19:12:44.643Z,71.90
2018-05-03T19:15:12.661Z,72.07
2018-05-03T19:17:40.578Z,71.72
2018-05-03T19:20:08.450Z,72.32
2018-05-03T19:22:36.316Z,76.10
2018-05-03T19:25:04.285Z,72.55
2018-05-03T19:27:32.143Z,72.15
2018-05-03T19:30:00.110Z,71.90
2018-05-03T19:32:27.894Z,74.50
2018-05-03T19:34:55.678Z,72.55
2018-05-03T19:37:24.218Z,74.18
2018-05-03T19:39:52.807Z,71.55
2018-05-03T19:42:20.724Z,74.10
2018-05-03T19:44:48.642Z,72.22
2018-05-03T19:47:16.606Z,71.85
2018-05-03T19:49:44.410Z,73.32
2018-05-03T19:52:13.156Z,71.65
2018-05-03T19:54:41.230Z,72.43
2018-05-03T19:57:09.458Z,71.25
2018-05-03T19:59:37.502Z,70.25
2018-05-03T20:02:06.781Z,72.07
2018-05-03T20:04:36.788Z,72.05
2018-05-03T20:07:04.961Z,71.82
2018-05-03T20:09:33.138Z,74.70
2018-05-03T20:12:01.209Z,70.78
2018-05-03T20:14:29.149Z,74.60
2018-05-03T20:16:57.216Z,70.05
2018-05-03T20:19:24.970Z,73.47
2018-05-03T20:21:52.778Z,70.35
2018-05-03T20:24:20.647Z,72.37
2018-05-03T20:26:48.608Z,71.28
2018-05-03T20:29:16.484Z,71.80
2018-05-03T20:31:44.352Z,72.03
2018-05-03T20:34:12.311Z,73.15
2018-05-03T20:36:40.277Z,73.57
2018-05-03T20:39:08.143Z,74.30
2018-05-03T20:41:35.965Z,73.18
2018-05-03T20:44:03.857Z,72.55
2018-05-03T20:46:31.844Z,75.45
2018-05-03T20:48:59.785Z,73.65
2018-05-03T20:51:27.695Z,72.95
2018-05-03T20:53:55.620Z,74.00
2018-05-03T20:56:23.511Z,73.72
2018-05-03T20:58:51.349Z,74.18
2018-05-03T21:01:19.249Z,71.78
2018-05-03T21:03:47.117Z,72.03
2018-05-03T21:06:14.951Z,73.45
2018-05-03T21:08:42.848Z,75.65
2018-05-03T21:11:10.721Z,76.18
2018-05-03T21:13:38.582Z,75.47
2018-05-03T21:16:06.447Z,74.43
2018-05-03T21:18:34.418Z,85.87
2018-05-03T21:21:02.388Z,75.25
2018-05-03T21:23:30.248Z,74.15
2018-05-03T21:25:58.115Z,74.47
2018-05-03T21:28:25.990Z,75.97
2018-05-03T21:30:53.849Z,81.57
2018-05-03T21:33:21.713Z,75.93
2018-05-03T21:35:49.582Z,73.37
2018-05-03T21:38:17.448Z,73.70
2018-05-03T21:40:45.316Z,74.25
2018-05-03T21:43:13.387Z,74.30
2018-05-03T21:45:42.171Z,73.43
2018-05-03T21:48:10.093Z,73.30
2018-05-03T21:50:38.005Z,71.00
2018-05-03T21:53:06.116Z,73.12
2018-05-03T21:55:34.873Z,75.37
2018-05-03T21:58:02.696Z,72.53
2018-05-03T22:00:30.595Z,74.47
2018-05-03T22:02:58.676Z,73.10
2018-05-03T22:05:26.534Z,75.15
2018-05-03T22:07:54.415Z,72.75
2018-05-03T22:10:23.095Z,73.93
2018-05-03T22:12:51.021Z,73.30
2018-05-03T22:15:18.927Z,84.13
2018-05-03T22:17:46.853Z,76.05
2018-05-03T22:20:14.867Z,75.57
2018-05-03T22:22:43.061Z,73.50
2018-05-03T22:25:11.719Z,71.40
2018-05-03T22:27:39.584Z,74.18
2018-05-03T22:30:07.552Z,71.60
2018-05-03T22:32:35.417Z,74.25
2018-05-03T22:35:03.400Z,72.78
2018-05-03T22:37:31.458Z,74.78
2018-05-03T22:39:59.427Z,72.15
2018-05-03T22:42:27.247Z,74.35
2018-05-03T22:44:55.164Z,72.20
2018-05-03T22:47:23.023Z,74.25
2018-05-03T22:49:51.007Z,72.53
2018-05-03T22:52:19.020Z,71.72
2018-05-03T22:54:47.058Z,72.85
2018-05-03T22:57:15.832Z,73.15
2018-05-03T22:59:43.795Z,71.93
2018-05-03T23:02:11.926Z,72.12
2018-05-03T23:04:40.044Z,72.20
2018-05-03T23:07:07.991Z,72.55
2018-05-03T23:09:35.880Z,74.25
2018-05-03T23:12:03.837Z,71.12
2018-05-03T23:14:31.904Z,74.28
2018-05-03T23:16:59.902Z,71.80
2018-05-03T23:19:28.791Z,73.57
2018-05-03T23:21:57.576Z,71.80
2018-05-03T23:24:26.554Z,77.47
2018-05-03T23:26:54.635Z,74.35
2018-05-03T23:29:22.685Z,75.12
2018-05-03T23:31:50.680Z,73.93
2018-05-03T23:34:19.442Z,70.35
2018-05-03T23:36:47.409Z,73.53
2018-05-03T23:39:15.384Z,70.93
2018-05-03T23:41:43.446Z,74.60
2018-05-03T23:44:11.423Z,72.57
2018-05-03T23:46:39.489Z,73.62
2018-05-03T23:49:07.328Z,75.68
2018-05-03T23:51:35.230Z,74.62
2018-05-03T23:54:03.201Z,74.05
2018-05-03T23:56:31.057Z,75.53
2018-05-03T23:58:58.936Z,76.40
